Time;durP1;ratioP1;P1;durP2;ratioP2;P2;SDS_P1;SDS_P2;PMS_P1;PMS_P2;Temp;Humidity;BMP_temperature;BMP_pressure;BME280_temperature;BME280_humidity;BME280_pressure;Samples;Min_cycle;Max_cycle;Signal;HPM_P1;HPM_P2
2022/08/03 00:01:38;;;;;;;;;;;19.70;99.90;;;;;;5066677;28;20052;-72
2022/08/03 00:04:05;;;;;;;0.20;0.20;;;19.70;99.90;;;;;;5029896;28;19917;-72
2022/08/03 00:06:31;;;;;;;0.30;0.30;;;19.70;99.90;;;;;;5032471;28;20049;-73
2022/08/03 00:08:57;;;;;;;0.30;0.30;;;19.70;99.90;;;;;;5054135;28;20041;-73
2022/08/03 00:11:22;;;;;;;;;;;19.70;99.90;;;;;;5052875;28;20036;-74
2022/08/03 00:13:48;;;;;;;0.30;0.30;;;19.40;99.90;;;;;;5051180;28;20369;-73
2022/08/03 00:16:14;;;;;;;0.30;0.30;;;19.60;99.90;;;;;;5053518;28;20091;-73
2022/08/03 00:18:40;;;;;;;0.57;0.57;;;19.40;99.90;;;;;;5074969;28;20510;-73
2022/08/03 00:21:06;;;;;;;;;;;19.30;99.90;;;;;;5047763;28;22196;-74
2022/08/03 00:23:33;;;;;;;0.30;0.30;;;19.40;99.90;;;;;;5033869;28;19917;-73
2022/08/03 00:25:59;;;;;;;0.30;0.30;;;19.30;99.90;;;;;;5049772;28;20063;-74
2022/08/03 00:28:24;;;;;;;0.40;0.40;;;19.30;99.90;;;;;;5069255;28;20049;-73
2022/08/03 00:30:50;;;;;;;;;;;19.40;99.90;;;;;;5021547;28;20419;-74
2022/08/03 00:33:16;;;;;;;0.30;0.30;;;19.40;99.90;;;;;;5039783;28;20000;-73
2022/08/03 00:35:41;;;;;;;;;;;19.30;99.90;;;;;;5049520;28;20037;-74
2022/08/03 00:38:07;;;;;;;0.20;0.20;;;19.40;99.90;;;;;;5054736;28;19933;-74
2022/08/03 00:40:33;;;;;;;;;;;19.20;99.90;;;;;;5055888;28;20111;-73
2022/08/03 00:43:03;;;;;;;1.15;0.30;;;19.10;99.90;;;;;;5032773;28;19917;-73
2022/08/03 00:45:32;;;;;;;0.20;0.20;;;19.00;99.90;;;;;;5053652;28;20044;-73
2022/08/03 00:47:59;;;;;;;0.30;0.30;;;19.10;99.90;;;;;;5049483;28;20037;-72
2022/08/03 00:50:26;;;;;;;0.30;0.30;;;19.10;99.90;;;;;;5050736;28;20059;-73
2022/08/03 00:52:54;;;;;;;0.20;0.20;;;19.30;99.90;;;;;;5050482;28;20098;-74
2022/08/03 00:55:20;;;;;;;0.20;0.20;;;19.30;99.90;;;;;;5052018;28;20115;-73
2022/08/03 00:57:47;;;;;;;0.15;0.15;;;19.00;99.90;;;;;;5048836;28;20143;-73
2022/08/03 01:00:16;;;;;;;0.20;0.20;;;19.30;99.90;;;;;;5054246;28;20528;-74
2022/08/03 01:02:42;;;;;;;0.30;0.30;;;19.10;99.90;;;;;;5052059;28;20479;-74
2022/08/03 01:05:09;;;;;;;0.20;0.20;;;19.00;99.90;;;;;;5043364;28;20060;-73
2022/08/03 01:07:52;;;;;;;0.20;0.20;;;18.90;99.90;;;;;;5047667;28;20045;-73
2022/08/03 01:10:34;;;;;;;1.08;0.57;;;19.00;99.90;;;;;;5041137;28;20158;-74
2022/08/03 01:13:20;;;;;;;0.20;0.20;;;18.90;99.90;;;;;;5048188;28;20032;-74
2022/08/03 01:16:09;;;;;;;0.20;0.20;;;18.90;99.90;;;;;;5048942;28;20390;-73
2022/08/03 01:18:42;;;;;;;0.38;0.38;;;18.90;99.90;;;;;;5054980;28;20076;-73
2022/08/03 01:21:25;;;;;;;0.38;0.38;;;19.10;99.90;;;;;;5055185;28;20060;-73
2022/08/03 01:24:04;;;;;;;0.43;0.43;;;18.90;99.90;;;;;;5073200;28;20052;-73
2022/08/03 01:26:51;;;;;;;0.30;0.30;;;18.80;99.90;;;;;;5046892;28;20090;-73
2022/08/03 01:29:38;;;;;;;0.50;0.50;;;19.10;99.90;;;;;;5054152;28;20056;-73
2022/08/03 01:32:18;;;;;;;0.30;0.30;;;18.90;99.90;;;;;;5051387;28;20045;-73
2022/08/03 01:34:58;;;;;;;0.20;0.20;;;18.90;99.90;;;;;;5041372;28;20085;-73
2022/08/03 01:37:37;;;;;;;0.20;0.20;;;19.00;99.90;;;;;;5049412;28;20056;-74
2022/08/03 01:40:05;;;;;;;0.30;0.30;;;18.90;99.90;;;;;;5045039;28;20115;-74
2022/08/03 01:42:32;;;;;;;0.30;0.30;;;19.10;99.90;;;;;;5051066;28;20048;-74
2022/08/03 01:45:00;;;;;;;0.25;0.25;;;18.80;99.90;;;;;;5055966;28;20135;-74
2022/08/03 01:47:28;;;;;;;0.10;0.10;;;19.00;99.90;;;;;;5050998;28;20047;-74
2022/08/03 01:49:56;;;;;;;0.30;0.30;;;18.80;99.90;;;;;;5056398;28;20049;-74
2022/08/03 01:52:24;;;;;;;0.50;0.50;;;18.90;99.90;;;;;;5053183;28;20041;-74
2022/08/03 01:54:52;;;;;;;0.20;0.20;;;19.00;99.90;;;;;;5055614;28;20045;-74
2022/08/03 01:57:18;;;;;;;0.30;0.30;;;18.80;99.90;;;;;;5050232;28;20057;-75
2022/08/03 01:59:47;;;;;;;0.40;0.40;;;19.10;99.90;;;;;;5069428;28;20045;-74
2022/08/03 02:02:15;;;;;;;0.30;0.30;;;19.00;99.90;;;;;;5059879;28;20054;-75
2022/08/03 02:04:46;;;;;;;1.02;0.80;;;18.80;99.90;;;;;;5051502;28;20045;-74
2022/08/03 02:07:14;;;;;;;0.25;0.25;;;18.80;99.90;;;;;;5051058;28;20538;-74
2022/08/03 02:09:42;;;;;;;0.30;0.30;;;18.90;99.90;;;;;;5027169;28;20049;-74
2022/08/03 02:12:09;;;;;;;0.20;0.20;;;18.80;99.90;;;;;;5053466;28;20120;-74
2022/08/03 02:14:38;;;;;;;1.45;1.40;;;18.70;99.90;;;;;;5056915;28;20037;-73
2022/08/03 02:17:08;;;;;;;0.88;0.88;;;18.60;99.90;;;;;;5076592;28;20044;-74
2022/08/03 02:19:35;;;;;;;0.28;0.28;;;18.90;99.90;;;;;;5052691;28;20045;-74
2022/08/03 02:22:03;;;;;;;0.20;0.20;;;18.70;99.90;;;;;;5039181;28;20555;-73
2022/08/03 02:24:30;;;;;;;0.52;0.52;;;18.70;99.90;;;;;;5052335;28;20084;-74
2022/08/03 02:26:57;;;;;;;0.40;0.40;;;18.50;99.90;;;;;;5052521;28;20049;-74
2022/08/03 02:29:28;;;;;;;0.32;0.32;;;18.60;99.90;;;;;;5054063;28;20137;-74
2022/08/03 02:31:57;;;;;;;0.20;0.20;;;18.50;99.90;;;;;;5055456;28;20099;-73
2022/08/03 02:34:28;;;;;;;0.30;0.30;;;18.60;99.90;;;;;;5044769;28;20037;-73
2022/08/03 02:36:59;;;;;;;0.22;0.22;;;18.80;99.90;;;;;;5054024;28;20044;-74
2022/08/03 02:39:27;;;;;;;0.38;0.38;;;18.50;99.90;;;;;;5042382;28;20041;-74
2022/08/03 02:42:01;;;;;;;0.30;0.30;;;18.70;99.90;;;;;;5054406;28;20045;-74
2022/08/03 02:44:27;;;;;;;0.30;0.30;;;18.70;99.90;;;;;;5035230;28;20041;-74
2022/08/03 02:47:01;;;;;;;0.32;0.32;;;18.70;99.90;;;;;;5053851;28;20403;-73
2022/08/03 02:49:28;;;;;;;0.20;0.20;;;18.40;99.90;;;;;;5052329;28;20491;-73
2022/08/03 02:51:55;;;;;;;6.25;1.30;;;18.60;99.90;;;;;;5054898;28;20049;-73
2022/08/03 02:54:23;;;;;;;0.25;0.25;;;18.50;99.90;;;;;;5039804;28;20159;-73
2022/08/03 02:56:50;;;;;;;0.85;0.85;;;18.40;99.90;;;;;;5036985;28;20045;-73
2022/08/03 02:59:18;;;;;;;1.08;0.45;;;18.40;99.90;;;;;;5056153;28;20116;-74
2022/08/03 03:01:45;;;;;;;0.30;0.30;;;18.50;99.90;;;;;;5055209;28;20044;-73
2022/08/03 03:04:11;;;;;;;0.30;0.30;;;18.60;99.90;;;;;;5055047;28;20033;-74
2022/08/03 03:06:39;;;;;;;0.55;0.55;;;18.20;99.90;;;;;;5050089;28;20045;-74
2022/08/03 03:09:05;;;;;;;0.20;0.20;;;18.30;99.90;;;;;;5043138;28;20116;-74
2022/08/03 03:11:32;;;;;;;0.10;0.10;;;18.40;99.90;;;;;;5051218;28;20059;-74
2022/08/03 03:13:59;;;;;;;0.20;0.20;;;18.30;99.90;;;;;;5056812;28;20041;-74
2022/08/03 03:16:28;;;;;;;0.20;0.20;;;18.40;99.90;;;;;;5057137;28;20106;-74
2022/08/03 03:18:54;;;;;;;0.20;0.20;;;18.20;99.90;;;;;;5063288;28;20036;-74
2022/08/03 03:21:20;;;;;;;0.30;0.30;;;18.20;99.90;;;;;;5033797;28;20048;-75
2022/08/03 03:23:47;;;;;;;0.30;0.30;;;18.30;99.90;;;;;;5054980;28;20127;-75
2022/08/03 03:26:14;;;;;;;0.30;0.30;;;18.30;99.90;;;;;;5031395;28;20089;-72
2022/08/03 03:28:40;;;;;;;0.30;0.30;;;18.10;99.90;;;;;;5071904;28;20052;-72
2022/08/03 03:31:08;;;;;;;0.22;0.22;;;18.20;99.90;;;;;;5059344;28;20059;-72
2022/08/03 03:33:34;;;;;;;0.30;0.30;;;18.20;99.90;;;;;;5042474;28;20393;-72
2022/08/03 03:36:00;;;;;;;0.47;0.47;;;18.30;99.90;;;;;;5047700;28;20083;-72
2022/08/03 03:38:26;;;;;;;;;;;18.10;99.90;;;;;;5038786;28;20045;-72
2022/08/03 03:40:52;;;;;;;0.20;0.20;;;18.20;99.90;;;;;;5050078;28;20346;-72
2022/08/03 03:43:17;;;;;;;;;;;18.30;99.90;;;;;;5050626;28;20477;-73
2022/08/03 03:45:46;;;;;;;0.20;0.20;;;18.10;99.90;;;;;;5049991;28;19916;-73
2022/08/03 03:48:12;;;;;;;0.30;0.30;;;18.20;99.90;;;;;;5065857;28;20037;-74
2022/08/03 03:50:40;;;;;;;2.10;1.92;;;17.90;99.90;;;;;;5049595;28;20049;-72
2022/08/03 03:53:09;;;;;;;0.20;0.20;;;18.10;99.90;;;;;;5032693;28;20037;-73
2022/08/03 03:55:37;;;;;;;0.30;0.30;;;18.00;99.90;;;;;;5045254;28;20041;-73
2022/08/03 03:58:03;;;;;;;0.30;0.30;;;18.30;99.90;;;;;;5051498;28;20044;-74
2022/08/03 04:00:29;;;;;;;0.25;0.25;;;18.10;99.90;;;;;;5067807;28;20056;-73
2022/08/03 04:02:55;;;;;;;0.60;0.60;;;18.10;99.90;;;;;;5059892;28;20402;-73
2022/08/03 04:11:15;;;;;;;0.30;0.30;;;18.20;99.90;;;;;;5046135;28;20087;-74
2022/08/03 04:13:59;;;;;;;0.40;0.40;;;18.40;99.90;;;;;;5056401;28;20053;-73
2022/08/03 04:16:29;;;;;;;0.20;0.20;;;18.10;99.90;;;;;;5054390;28;20047;-74
2022/08/03 04:19:01;;;;;;;0.95;0.73;;;18.00;99.90;;;;;;5056566;28;20040;-73
2022/08/03 04:21:29;;;;;;;0.20;0.20;;;18.20;99.90;;;;;;5039920;28;20041;-72
2022/08/03 04:24:00;;;;;;;0.30;0.30;;;18.10;99.90;;;;;;5053094;28;20123;-73
2022/08/03 04:26:30;;;;;;;0.40;0.40;;;18.30;99.90;;;;;;5052741;28;20041;-71
2022/08/03 04:28:57;;;;;;;0.30;0.30;;;17.80;99.90;;;;;;5048263;28;20057;-72
2022/08/03 04:31:24;;;;;;;0.38;0.38;;;18.10;99.90;;;;;;5049108;28;20398;-72
2022/08/03 04:33:52;;;;;;;1.63;1.52;;;18.30;99.90;;;;;;5049018;28;20047;-72
2022/08/03 04:36:22;;;;;;;0.40;0.40;;;18.40;99.90;;;;;;5035555;28;20107;-71
2022/08/03 04:39:07;;;;;;;0.60;0.60;;;18.40;99.90;;;;;;5057258;28;20557;-71
2022/08/03 04:41:34;;;;;;;1.05;0.50;;;18.20;99.90;;;;;;5054694;28;20084;-71
2022/08/03 04:44:03;;;;;;;0.20;0.20;;;18.40;99.90;;;;;;5054592;28;20041;-78
2022/08/03 04:46:34;;;;;;;0.32;0.32;;;18.20;99.90;;;;;;5051616;28;20084;-74
2022/08/03 04:49:00;;;;;;;0.47;0.47;;;18.20;99.90;;;;;;5057432;28;20064;-77
2022/08/03 04:51:27;;;;;;;0.20;0.20;;;18.30;99.90;;;;;;5073406;28;20044;-72
2022/08/03 04:53:52;;;;;;;1.38;0.50;;;18.20;99.90;;;;;;5057396;28;20094;-72
2022/08/03 04:56:18;;;;;;;;;;;18.30;99.90;;;;;;5054685;28;20433;-72
2022/08/03 04:58:44;;;;;;;1.08;1.05;;;18.50;99.90;;;;;;5053139;28;19917;-72
2022/08/03 05:01:09;;;;;;;;;;;18.50;99.90;;;;;;5056940;28;20098;-72
2022/08/03 05:03:35;;;;;;;0.47;0.30;;;18.40;99.90;;;;;;5049514;28;20282;-73
2022/08/03 05:06:01;;;;;;;;;;;18.50;99.90;;;;;;5072479;28;20036;-72
2022/08/03 05:08:26;;;;;;;0.40;0.40;;;18.40;99.90;;;;;;5054707;28;20020;-72
2022/08/03 05:10:55;;;;;;;;;;;18.70;99.90;;;;;;5056984;28;20458;-73
2022/08/03 05:13:20;;;;;;;0.40;0.40;;;18.50;99.90;;;;;;5045792;28;20007;-72
2022/08/03 05:15:46;;;;;;;;;;;18.70;99.90;;;;;;5054295;28;20089;-72
2022/08/03 05:18:12;;;;;;;0.30;0.30;;;18.50;99.90;;;;;;5054224;28;20419;-72
2022/08/03 05:20:37;;;;;;;;;;;18.70;99.90;;;;;;5049688;28;20227;-72
2022/08/03 05:23:03;;;;;;;0.28;0.28;;;18.60;99.90;;;;;;5045992;28;20016;-72
2022/08/03 05:25:29;;;;;;;;;;;18.70;99.90;;;;;;5056290;28;20047;-72
2022/08/03 05:27:55;;;;;;;0.40;0.40;;;19.00;99.90;;;;;;5046996;28;19921;-73
2022/08/03 05:30:20;;;;;;;;;;;19.00;99.90;;;;;;5051154;28;20097;-73
2022/08/03 05:32:46;;;;;;;0.45;0.45;;;19.10;99.90;;;;;;5049511;28;19926;-73
2022/08/03 05:35:12;;;;;;;;;;;18.90;99.90;;;;;;5030901;28;20510;-73
2022/08/03 05:37:37;;;;;;;0.32;0.32;;;18.90;99.90;;;;;;5048890;28;20023;-73
2022/08/03 05:40:03;;;;;;;;;;;19.00;99.90;;;;;;5058657;28;20478;-73
2022/08/03 05:42:29;;;;;;;0.50;0.50;;;19.20;99.90;;;;;;5053771;28;20484;-73
2022/08/03 05:44:55;;;;;;;;;;;19.10;99.90;;;;;;5052166;28;20159;-73
2022/08/03 05:47:20;;;;;;;0.40;0.40;;;19.30;99.90;;;;;;5050500;28;19917;-73
2022/08/03 05:49:46;;;;;;;;;;;19.00;99.90;;;;;;5051876;28;20041;-73
2022/08/03 05:52:12;;;;;;;0.55;0.55;;;19.10;99.90;;;;;;5053492;28;19916;-73
2022/08/03 05:54:37;;;;;;;;;;;19.40;99.90;;;;;;5057222;28;20077;-73
2022/08/03 05:57:03;;;;;;;0.73;0.73;;;19.50;99.90;;;;;;5050388;28;19921;-73
2022/08/03 05:59:28;;;;;;;;;;;19.50;99.90;;;;;;5054794;28;20076;-73
2022/08/03 06:01:54;;;;;;;0.13;0.13;;;19.40;99.90;;;;;;5052041;28;19917;-73
2022/08/03 06:04:20;;;;;;;;;;;19.50;99.90;;;;;;5038228;28;20054;-73
2022/08/03 06:06:46;;;;;;;0.22;0.22;;;19.60;99.90;;;;;;5049608;28;19930;-73
2022/08/03 06:09:12;;;;;;;1.00;1.00;;;19.50;99.90;;;;;;5040917;28;20119;-73
2022/08/03 06:11:39;;;;;;;0.25;0.25;;;19.50;99.90;;;;;;5066052;28;20119;-73
2022/08/03 06:14:05;;;;;;;0.20;0.20;;;19.60;99.90;;;;;;5056315;28;20110;-73
2022/08/03 06:16:31;;;;;;;0.20;0.20;;;19.70;99.90;;;;;;5050726;28;20103;-73
2022/08/03 06:18:56;;;;;;;0.40;0.40;;;19.80;99.90;;;;;;5057354;28;20048;-73
2022/08/03 06:21:22;;;;;;;;;;;19.70;99.90;;;;;;5035676;28;20040;-73
2022/08/03 06:23:48;;;;;;;0.30;0.30;;;20.00;99.90;;;;;;5050966;28;19927;-73
2022/08/03 06:26:14;;;;;;;0.30;0.30;;;19.70;99.90;;;;;;5033654;28;20044;-73
2022/08/03 06:28:41;;;;;;;0.20;0.20;;;20.00;99.90;;;;;;5054630;28;20057;-73
2022/08/03 06:31:06;;;;;;;0.20;0.20;;;19.90;99.90;;;;;;5053080;28;20053;-73
2022/08/03 06:33:32;;;;;;;0.63;0.63;;;20.20;99.90;;;;;;5053088;28;20088;-73
2022/08/03 06:35:58;;;;;;;0.55;0.55;;;20.10;99.90;;;;;;5054412;28;20458;-73
2022/08/03 06:38:23;;;;;;;;;;;20.40;99.90;;;;;;5051740;28;20513;-73
2022/08/03 06:40:49;;;;;;;1.10;0.75;;;20.40;99.90;;;;;;5051963;28;19916;-73
2022/08/03 06:43:15;;;;;;;;;;;20.50;99.90;;;;;;5038664;28;20098;-73
2022/08/03 06:45:40;;;;;;;0.20;0.20;;;20.60;99.90;;;;;;5054402;28;19963;-74
2022/08/03 06:48:08;;;;;;;0.82;0.82;;;20.70;99.90;;;;;;5052537;28;20564;-73
2022/08/03 06:50:36;;;;;;;0.50;0.50;;;20.80;99.90;;;;;;5053781;28;20048;-74
2022/08/03 06:53:03;;;;;;;0.30;0.30;;;20.70;99.90;;;;;;5058090;28;20048;-74
2022/08/03 06:55:28;;;;;;;1.52;1.38;;;20.90;99.90;;;;;;5069364;28;20406;-74
2022/08/03 06:57:54;;;;;;;0.35;0.35;;;21.10;99.90;;;;;;5067066;28;20040;-74
2022/08/03 07:00:20;;;;;;;0.77;0.77;;;21.00;99.90;;;;;;5079410;28;20048;-74
2022/08/03 07:02:46;;;;;;;;;;;21.10;99.90;;;;;;5067327;28;20048;-74
2022/08/03 07:05:12;;;;;;;0.50;0.50;;;21.10;99.90;;;;;;5070019;28;19924;-73
2022/08/03 07:07:38;;;;;;;0.38;0.38;;;21.20;99.90;;;;;;5059702;28;20052;-74
2022/08/03 07:10:05;;;;;;;0.32;0.32;;;21.60;99.90;;;;;;5062676;28;20045;-74
2022/08/03 07:12:32;;;;;;;0.47;0.30;;;21.80;99.90;;;;;;5063166;28;20142;-73
2022/08/03 07:14:59;;;;;;;0.43;0.43;;;21.80;99.90;;;;;;5069729;28;20110;-74
2022/08/03 07:17:25;;;;;;;0.52;0.52;;;21.70;99.90;;;;;;5050435;28;20075;-74
2022/08/03 07:19:51;;;;;;;0.43;0.43;;;21.70;99.90;;;;;;5060732;28;20045;-74
2022/08/03 07:22:16;;;;;;;0.60;0.60;;;21.90;99.90;;;;;;5077044;28;20077;-74
2022/08/03 07:24:42;;;;;;;0.73;0.73;;;21.90;99.90;;;;;;5048557;28;20130;-74
2022/08/03 07:27:08;;;;;;;0.50;0.50;;;22.00;99.90;;;;;;5056387;28;20041;-74
2022/08/03 07:29:35;;;;;;;1.00;1.00;;;22.20;99.90;;;;;;5068441;28;20324;-74
2022/08/03 07:32:03;;;;;;;0.35;0.35;;;22.20;99.90;;;;;;5050328;28;20090;-73
2022/08/03 07:34:29;;;;;;;1.08;0.75;;;22.20;99.90;;;;;;5041050;28;20080;-74
2022/08/03 07:36:54;;;;;;;0.47;0.47;;;22.30;99.90;;;;;;5051302;28;20119;-74
2022/08/03 07:39:20;;;;;;;0.20;0.20;;;22.30;99.90;;;;;;5068122;28;20136;-74
2022/08/03 07:41:48;;;;;;;0.40;0.40;;;22.60;99.90;;;;;;5038978;28;20036;-75
2022/08/03 07:44:14;;;;;;;0.40;0.40;;;22.70;99.90;;;;;;5059291;28;20379;-72
2022/08/03 07:46:40;;;;;;;0.20;0.20;;;22.70;99.90;;;;;;5065785;28;20067;-74
2022/08/03 07:49:06;;;;;;;0.22;0.22;;;22.60;99.90;;;;;;5050896;28;20080;-73
2022/08/03 07:51:31;;;;;;;1.10;0.82;;;22.60;99.90;;;;;;5049146;28;20041;-73
2022/08/03 07:53:57;;;;;;;0.20;0.20;;;22.70;99.90;;;;;;5067719;28;20127;-73
2022/08/03 07:56:26;;;;;;;1.85;0.88;;;23.00;99.90;;;;;;5054345;28;20040;-73
2022/08/03 07:58:53;;;;;;;0.35;0.35;;;22.80;99.90;;;;;;5059036;28;20068;-73
2022/08/03 08:01:19;;;;;;;0.63;0.63;;;22.70;99.90;;;;;;5062623;28;20040;-73
2022/08/03 08:03:45;;;;;;;8.93;1.35;;;23.10;99.90;;;;;;5065187;28;20056;-73
2022/08/03 08:06:11;;;;;;;0.73;0.73;;;23.20;99.90;;;;;;5062939;28;20546;-73
2022/08/03 08:08:37;;;;;;;0.28;0.28;;;23.30;99.90;;;;;;5043019;28;20135;-72
2022/08/03 08:11:03;;;;;;;0.40;0.40;;;23.20;99.90;;;;;;5049945;28;20128;-73
2022/08/03 08:13:29;;;;;;;0.47;0.47;;;23.30;99.90;;;;;;5049395;28;20108;-73
2022/08/03 08:15:55;;;;;;;0.57;0.57;;;23.50;99.90;;;;;;5062767;28;20471;-73
2022/08/03 08:18:21;;;;;;;1.17;1.15;;;23.40;99.90;;;;;;5067006;28;20036;-73
2022/08/03 08:20:46;;;;;;;1.08;1.02;;;23.40;99.90;;;;;;5049878;28;20048;-74
2022/08/03 08:23:12;;;;;;;0.30;0.30;;;23.80;99.90;;;;;;5065673;28;20088;-73
2022/08/03 08:25:38;;;;;;;0.30;0.30;;;23.60;99.90;;;;;;5051209;28;20600;-73
2022/08/03 08:28:04;;;;;;;1.25;1.13;;;23.70;99.90;;;;;;5049969;28;20110;-73
2022/08/03 08:30:32;;;;;;;0.60;0.60;;;23.60;99.90;;;;;;5051851;28;20049;-73
2022/08/03 08:32:58;;;;;;;0.20;0.20;;;23.80;99.90;;;;;;5050277;28;20045;-73
2022/08/03 08:35:23;;;;;;;0.98;0.98;;;24.10;99.90;;;;;;5028989;28;20041;-73
2022/08/03 08:37:49;;;;;;;0.70;0.70;;;24.10;99.90;;;;;;5058127;28;20048;-73
2022/08/03 08:40:15;;;;;;;0.35;0.35;;;24.20;99.90;;;;;;5051181;28;20044;-73
2022/08/03 08:42:42;;;;;;;0.70;0.70;;;23.90;99.90;;;;;;5049551;28;20044;-73
2022/08/03 08:45:10;;;;;;;1.45;0.95;;;24.30;99.90;;;;;;5049224;28;20048;-73
2022/08/03 08:47:38;;;;;;;0.55;0.55;;;24.20;99.90;;;;;;5053561;28;20040;-73
2022/08/03 08:50:06;;;;;;;0.82;0.82;;;24.00;99.90;;;;;;5054304;28;20045;-73
2022/08/03 08:52:33;;;;;;;0.30;0.30;;;24.10;99.90;;;;;;5056280;28;20045;-73
2022/08/03 08:55:02;;;;;;;0.30;0.30;;;24.20;99.90;;;;;;5059793;28;20466;-73
2022/08/03 08:57:41;;;;;;;0.40;0.40;;;24.10;99.90;;;;;;5054615;28;20151;-73
2022/08/03 09:00:10;;;;;;;0.68;0.68;;;24.40;99.90;;;;;;5040144;28;20136;-73
2022/08/03 09:02:35;;;;;;;0.38;0.35;;;24.30;99.90;;;;;;5048412;28;20099;-73
2022/08/03 09:05:02;;;;;;;0.38;0.38;;;24.30;99.90;;;;;;5065627;28;20053;-73
2022/08/03 09:07:28;;;;;;;0.73;0.73;;;24.40;99.90;;;;;;5050130;28;20049;-72
2022/08/03 09:09:54;;;;;;;1.83;1.65;;;24.20;99.90;;;;;;5041500;28;20088;-73
2022/08/03 09:12:20;;;;;;;1.20;0.95;;;24.40;99.90;;;;;;5048696;28;20044;-74
2022/08/03 09:14:46;;;;;;;0.40;0.40;;;24.40;99.90;;;;;;5039106;28;20097;-73
2022/08/03 09:17:11;;;;;;;0.40;0.40;;;24.60;99.90;;;;;;5059793;28;20090;-73
2022/08/03 09:19:37;;;;;;;0.30;0.30;;;24.50;99.90;;;;;;5065790;28;20139;-73
2022/08/03 09:22:21;;;;;;;0.25;0.25;;;24.80;99.90;;;;;;5057698;28;20071;-74
2022/08/03 09:25:00;;;;;;;0.45;0.45;;;24.90;99.90;;;;;;5044443;28;20047;-74
2022/08/03 09:27:26;;;;;;;0.30;0.30;;;25.10;99.90;;;;;;5047350;28;20578;-73
2022/08/03 09:29:53;;;;;;;0.77;0.77;;;25.20;99.90;;;;;;5050711;28;20049;-73
2022/08/03 09:32:23;;;;;;;0.32;0.32;;;25.30;99.90;;;;;;5047089;28;20037;-74
2022/08/03 09:34:51;;;;;;;0.25;0.25;;;25.50;99.90;;;;;;5042189;28;20033;-74
2022/08/03 09:37:19;;;;;;;0.30;0.30;;;25.30;99.90;;;;;;5047302;28;20526;-73
2022/08/03 09:39:46;;;;;;;0.50;0.47;;;25.50;99.90;;;;;;5050363;28;20479;-73
2022/08/03 09:42:17;;;;;;;0.95;0.88;;;25.50;99.90;;;;;;5064475;28;20059;-74
2022/08/03 09:45:01;;;;;;;0.65;0.65;;;25.50;99.90;;;;;;5049861;28;20056;-73
2022/08/03 09:47:28;;;;;;;0.40;0.40;;;25.60;99.90;;;;;;5047207;28;20175;-74
2022/08/03 09:50:09;;;;;;;0.47;0.47;;;25.40;99.90;;;;;;5052412;28;20056;-74
2022/08/03 09:52:39;;;;;;;1.92;0.40;;;25.60;99.90;;;;;;5055218;28;20120;-74
2022/08/03 09:55:11;;;;;;;0.93;0.88;;;25.40;99.90;;;;;;5050449;28;20080;-74
2022/08/03 09:57:37;;;;;;;1.85;1.73;;;25.50;99.90;;;;;;5048557;28;20386;-73
2022/08/03 10:00:11;;;;;;;0.43;0.43;;;25.70;99.90;;;;;;5065707;28;20045;-74
2022/08/03 10:02:39;;;;;;;1.27;1.17;;;25.80;99.90;;;;;;5050584;28;20059;-74
2022/08/03 10:05:07;;;;;;;0.30;0.30;;;25.80;99.90;;;;;;5072623;28;20059;-73
2022/08/03 10:07:47;;;;;;;3.10;1.48;;;25.80;99.90;;;;;;5058004;28;20102;-74
2022/08/03 10:10:14;;;;;;;0.50;0.50;;;26.00;99.90;;;;;;5058517;28;20124;-74
2022/08/03 10:12:41;;;;;;;0.75;0.40;;;26.10;99.90;;;;;;5062148;28;20037;-73
2022/08/03 10:15:08;;;;;;;0.52;0.52;;;26.00;99.90;;;;;;5073376;28;20116;-74
2022/08/03 10:17:34;;;;;;;0.60;0.60;;;25.90;99.90;;;;;;5069610;28;20123;-73
2022/08/03 10:19:59;;;;;;;0.70;0.70;;;25.80;99.90;;;;;;5064533;28;20460;-74
2022/08/03 10:22:28;;;;;;;0.60;0.40;;;25.90;99.90;;;;;;5063379;28;20049;-74
2022/08/03 10:25:12;;;;;;;0.40;0.40;;;25.90;99.90;;;;;;5053494;28;20044;-74
2022/08/03 10:27:40;;;;;;;0.65;0.60;;;26.00;99.90;;;;;;5052478;28;20131;-73
2022/08/03 10:30:10;;;;;;;0.38;0.38;;;26.10;99.90;;;;;;5026397;28;20045;-73
2022/08/03 10:32:43;;;;;;;0.55;0.55;;;26.40;99.90;;;;;;5052484;28;20040;-74
2022/08/03 10:35:15;;;;;;;0.55;0.55;;;26.50;99.90;;;;;;5056421;28;20056;-74
2022/08/03 10:37:50;;;;;;;0.50;0.50;;;26.30;99.90;;;;;;5062588;28;20040;-73
2022/08/03 10:40:20;;;;;;;0.65;0.65;;;26.60;99.90;;;;;;5068131;28;20458;-74
2022/08/03 10:42:48;;;;;;;0.30;0.30;;;26.70;99.90;;;;;;5046084;28;20040;-74
2022/08/03 10:45:26;;;;;;;0.70;0.70;;;27.00;99.90;;;;;;5085466;28;20052;-73
2022/08/03 10:47:54;;;;;;;1.50;1.40;;;27.30;99.90;;;;;;5062718;28;20037;-74
2022/08/03 10:50:23;;;;;;;1.30;0.93;;;28.20;99.90;;;;;;5061884;28;20041;-74
2022/08/03 10:52:56;;;;;;;1.05;0.75;;;27.50;99.90;;;;;;5051408;28;20059;-74
2022/08/03 10:58:50;;;;;;;0.90;0.90;;;27.20;99.90;;;;;;5052921;28;20047;-74
2022/08/03 11:01:17;;;;;;;1.25;0.65;;;27.10;99.90;;;;;;5060504;28;20102;-74
2022/08/03 11:03:52;;;;;;;1.27;1.15;;;26.90;99.90;;;;;;5053993;28;20041;-74
2022/08/03 11:06:23;;;;;;;1.02;0.95;;;26.90;99.90;;;;;;5075930;28;20110;-74
2022/08/03 11:09:09;;;;;;;1.45;1.17;;;27.10;99.90;;;;;;5066635;28;20053;-74
2022/08/03 11:11:36;;;;;;;12.73;1.20;;;27.20;99.90;;;;;;5057316;28;20040;-74
2022/08/03 11:14:06;;;;;;;0.73;0.73;;;27.00;99.90;;;;;;5053714;28;20040;-74
2022/08/03 11:16:34;;;;;;;0.30;0.30;;;27.00;99.90;;;;;;5052625;28;20041;-73
2022/08/03 11:19:02;;;;;;;1.00;0.90;;;27.10;99.90;;;;;;5068239;28;20040;-74
2022/08/03 11:21:54;;;;;;;0.30;0.30;;;27.20;99.90;;;;;;5056731;28;20119;-74
2022/08/03 11:24:35;;;;;;;1.90;0.82;;;27.20;99.90;;;;;;5047903;28;20061;-74
2022/08/03 11:27:16;;;;;;;1.30;1.20;;;27.20;99.90;;;;;;5068156;28;20053;-74
2022/08/03 11:30:01;;;;;;;0.40;0.40;;;27.30;99.90;;;;;;5053186;28;20129;-73
2022/08/03 11:32:39;;;;;;;0.20;0.20;;;27.30;99.90;;;;;;5048541;28;20045;-74
2022/08/03 11:35:25;;;;;;;1.10;1.00;;;27.30;99.90;;;;;;5052185;28;20124;-74
2022/08/03 11:37:57;;;;;;;2.17;0.40;;;27.30;99.90;;;;;;5045026;28;20453;-73
2022/08/03 11:40:42;;;;;;;0.88;0.77;;;27.50;99.90;;;;;;5066273;28;20507;-73
2022/08/03 11:43:29;;;;;;;0.20;0.20;;;27.40;99.90;;;;;;5065807;28;20048;-74
2022/08/03 11:46:15;;;;;;;0.80;0.80;;;27.60;99.90;;;;;;5063103;28;20397;-74
2022/08/03 11:48:46;;;;;;;6.18;2.50;;;27.70;99.90;;;;;;5047041;28;20036;-74
2022/08/03 11:51:26;;;;;;;0.38;0.38;;;27.80;99.90;;;;;;5063220;28;20052;-74
2022/08/03 11:53:57;;;;;;;3.75;0.77;;;27.80;99.90;;;;;;5050798;28;20036;-74
2022/08/03 11:56:23;;;;;;;0.82;0.70;;;27.90;99.90;;;;;;5075161;28;20053;-75
2022/08/03 11:58:52;;;;;;;0.32;0.32;;;28.20;99.90;;;;;;5060540;28;20470;-74
2022/08/03 12:01:20;;;;;;;0.52;0.52;;;28.00;99.90;;;;;;5061551;28;20136;-73
2022/08/03 12:03:46;;;;;;;3.88;2.08;;;28.30;99.90;;;;;;5051543;28;20044;-73
2022/08/03 12:06:14;;;;;;;0.68;0.68;;;28.30;99.90;;;;;;5067638;28;20044;-74
2022/08/03 12:08:42;;;;;;;0.90;0.90;;;28.30;99.90;;;;;;5043201;28;20120;-73
2022/08/03 12:11:12;;;;;;;0.38;0.38;;;28.20;99.90;;;;;;5053989;28;20060;-74
2022/08/03 12:13:50;;;;;;;4.70;1.60;;;28.20;99.90;;;;;;5046946;28;20114;-73
2022/08/03 12:16:27;;;;;;;0.30;0.30;;;28.40;99.90;;;;;;5031782;28;20394;-73
2022/08/03 12:18:55;;;;;;;0.25;0.25;;;28.50;99.90;;;;;;5063174;28;20098;-74
2022/08/03 12:21:23;;;;;;;1.55;0.85;;;29.00;99.90;;;;;;5065525;28;20044;-73
2022/08/03 12:23:59;;;;;;;0.85;0.85;;;29.10;99.90;;;;;;5039049;28;20117;-74
2022/08/03 12:26:26;;;;;;;1.30;1.20;;;29.40;99.90;;;;;;5051353;28;20044;-74
2022/08/03 12:28:52;;;;;;;0.52;0.52;;;29.40;99.90;;;;;;5050789;28;20190;-74
2022/08/03 12:31:18;;;;;;;0.93;0.52;;;29.50;99.90;;;;;;5050685;28;20532;-74
2022/08/03 12:33:54;;;;;;;0.68;0.68;;;29.50;99.90;;;;;;5052592;28;20036;-73
2022/08/03 12:36:20;;;;;;;;;;;29.90;99.90;;;;;;5051512;28;20044;-74
2022/08/03 12:38:57;;;;;;;0.47;0.47;;;29.80;99.90;;;;;;5066177;28;19916;-73
2022/08/03 12:41:32;;;;;;;0.47;0.47;;;29.80;99.90;;;;;;5068491;28;20449;-74
2022/08/03 12:44:05;;;;;;;0.73;0.73;;;29.60;99.90;;;;;;5045082;28;20501;-74
2022/08/03 12:46:35;;;;;;;7.80;1.45;;;29.50;99.90;;;;;;5061526;28;20043;-73
2022/08/03 12:49:14;;;;;;;1.40;1.30;;;29.60;99.90;;;;;;5056095;28;20041;-73
2022/08/03 12:51:42;;;;;;;1.40;1.23;;;29.90;99.90;;;;;;5063042;28;20041;-74
2022/08/03 12:54:15;;;;;;;1.48;1.38;;;29.80;99.90;;;;;;5061082;28;20501;-73
2022/08/03 12:56:59;;;;;;;0.77;0.77;;;29.80;99.90;;;;;;5048203;28;20036;-74
2022/08/03 12:59:27;;;;;;;0.30;0.30;;;29.90;99.90;;;;;;5049676;28;20110;-73
2022/08/03 13:01:53;;;;;;;0.60;0.60;;;30.00;99.90;;;;;;5050042;28;20049;-72
2022/08/03 13:04:31;;;;;;;0.93;0.93;;;29.90;99.90;;;;;;5032247;28;20120;-72
2022/08/03 13:07:08;;;;;;;1.50;1.00;;;29.90;99.90;;;;;;5046073;28;20037;-73
2022/08/03 13:09:43;;;;;;;0.57;0.57;;;29.80;99.90;;;;;;5046895;28;20091;-74
2022/08/03 13:12:17;;;;;;;0.53;0.53;;;29.90;99.90;;;;;;5051974;28;20082;-73